sensor_id;sensor_type;location;lat;lon;timestamp;P1;durP1;ratioP1;P2;durP2;ratioP2
11829;SDS011;5972;42.134;24.718;2024-02-26T00:00:07;38.08;;;28.05;;
11829;SDS011;5972;42.134;24.718;2024-02-26T00:02:35;37.67;;;27.30;;
11829;SDS011;5972;42.134;24.718;2024-02-26T00:05:05;37.25;;;28.15;;
11829;SDS011;5972;42.134;24.718;2024-02-26T00:07:33;43.95;;;28.35;;
11829;SDS011;5972;42.134;24.718;2024-02-26T00:10:00;42.33;;;29.13;;
11829;SDS011;5972;42.134;24.718;2024-02-26T00:12:27;40.28;;;27.33;;
11829;SDS011;5972;42.134;24.718;2024-02-26T00:14:54;34.33;;;26.67;;
11829;SDS011;5972;42.134;24.718;2024-02-26T00:17:23;37.60;;;27.05;;
11829;SDS011;5972;42.134;24.718;2024-02-26T00:19:50;37.33;;;26.67;;
11829;SDS011;5972;42.134;24.718;2024-02-26T00:22:19;35.63;;;26.63;;
11829;SDS011;5972;42.134;24.718;2024-02-26T00:24:47;34.33;;;26.35;;
11829;SDS011;5972;42.134;24.718;2024-02-26T00:27:14;42.45;;;27.90;;
11829;SDS011;5972;42.134;24.718;2024-02-26T00:29:41;36.45;;;27.88;;
11829;SDS011;5972;42.134;24.718;2024-02-26T00:32:08;37.78;;;25.95;;
11829;SDS011;5972;42.134;24.718;2024-02-26T00:34:35;37.33;;;26.88;;
11829;SDS011;5972;42.134;24.718;2024-02-26T00:37:02;37.60;;;26.50;;
11829;SDS011;5972;42.134;24.718;2024-02-26T00:39:30;36.92;;;25.83;;
11829;SDS011;5972;42.134;24.718;2024-02-26T00:41:57;36.45;;;25.33;;
11829;SDS011;5972;42.134;24.718;2024-02-26T00:44:24;32.60;;;24.88;;
11829;SDS011;5972;42.134;24.718;2024-02-26T00:46:51;34.95;;;23.63;;
11829;SDS011;5972;42.134;24.718;2024-02-26T00:49:18;26.55;;;19.45;;
11829;SDS011;5972;42.134;24.718;2024-02-26T00:51:45;27.63;;;20.80;;
11829;SDS011;5972;42.134;24.718;2024-02-26T00:54:12;25.23;;;20.58;;
11829;SDS011;5972;42.134;24.718;2024-02-26T00:56:40;30.90;;;21.50;;
11829;SDS011;5972;42.134;24.718;2024-02-26T00:59:07;27.10;;;20.60;;
11829;SDS011;5972;42.134;24.718;2024-02-26T01:01:34;27.40;;;20.65;;
11829;SDS011;5972;42.134;24.718;2024-02-26T01:04:01;30.90;;;21.33;;
11829;SDS011;5972;42.134;24.718;2024-02-26T01:06:29;36.65;;;20.58;;
11829;SDS011;5972;42.134;24.718;2024-02-26T01:08:56;27.73;;;21.45;;
11829;SDS011;5972;42.134;24.718;2024-02-26T01:11:23;24.85;;;20.05;;
11829;SDS011;5972;42.134;24.718;2024-02-26T01:13:51;23.42;;;19.63;;
11829;SDS011;5972;42.134;24.718;2024-02-26T01:16:21;24.92;;;19.55;;
11829;SDS011;5972;42.134;24.718;2024-02-26T01:18:48;26.58;;;19.63;;
11829;SDS011;5972;42.134;24.718;2024-02-26T01:21:15;25.40;;;20.10;;
11829;SDS011;5972;42.134;24.718;2024-02-26T01:23:42;27.42;;;20.17;;
11829;SDS011;5972;42.134;24.718;2024-02-26T01:26:09;26.38;;;19.95;;
11829;SDS011;5972;42.134;24.718;2024-02-26T01:28:36;26.35;;;19.48;;
11829;SDS011;5972;42.134;24.718;2024-02-26T01:31:05;28.02;;;19.83;;
11829;SDS011;5972;42.134;24.718;2024-02-26T01:33:33;27.13;;;19.23;;
11829;SDS011;5972;42.134;24.718;2024-02-26T01:36:01;26.73;;;18.85;;
11829;SDS011;5972;42.134;24.718;2024-02-26T01:38:28;23.33;;;19.10;;
11829;SDS011;5972;42.134;24.718;2024-02-26T01:40:55;22.90;;;18.30;;
11829;SDS011;5972;42.134;24.718;2024-02-26T01:43:22;28.50;;;18.80;;
11829;SDS011;5972;42.134;24.718;2024-02-26T01:45:49;24.23;;;19.13;;
11829;SDS011;5972;42.134;24.718;2024-02-26T01:48:17;24.73;;;19.25;;
11829;SDS011;5972;42.134;24.718;2024-02-26T01:50:44;24.23;;;18.95;;
11829;SDS011;5972;42.134;24.718;2024-02-26T01:53:15;26.65;;;18.58;;
11829;SDS011;5972;42.134;24.718;2024-02-26T01:55:42;23.55;;;19.45;;
11829;SDS011;5972;42.134;24.718;2024-02-26T01:58:09;22.33;;;18.38;;
11829;SDS011;5972;42.134;24.718;2024-02-26T02:00:37;28.05;;;17.45;;
11829;SDS011;5972;42.134;24.718;2024-02-26T02:03:05;22.63;;;17.80;;
11829;SDS011;5972;42.134;24.718;2024-02-26T02:05:34;23.55;;;17.80;;
11829;SDS011;5972;42.134;24.718;2024-02-26T02:08:07;21.15;;;17.92;;
11829;SDS011;5972;42.134;24.718;2024-02-26T02:10:34;21.17;;;16.40;;
11829;SDS011;5972;42.134;24.718;2024-02-26T02:13:01;22.98;;;16.80;;
11829;SDS011;5972;42.134;24.718;2024-02-26T02:15:28;20.42;;;16.38;;
11829;SDS011;5972;42.134;24.718;2024-02-26T02:17:57;23.92;;;16.15;;
11829;SDS011;5972;42.134;24.718;2024-02-26T02:20:26;21.13;;;16.15;;
11829;SDS011;5972;42.134;24.718;2024-02-26T02:22:58;23.15;;;16.30;;
11829;SDS011;5972;42.134;24.718;2024-02-26T02:25:25;20.48;;;15.57;;
11829;SDS011;5972;42.134;24.718;2024-02-26T02:27:52;22.38;;;15.40;;
11829;SDS011;5972;42.134;24.718;2024-02-26T02:30:20;21.02;;;16.10;;
11829;SDS011;5972;42.134;24.718;2024-02-26T02:32:49;21.10;;;15.63;;
11829;SDS011;5972;42.134;24.718;2024-02-26T02:35:17;22.67;;;16.42;;
11829;SDS011;5972;42.134;24.718;2024-02-26T02:37:45;23.55;;;16.05;;
11829;SDS011;5972;42.134;24.718;2024-02-26T02:40:14;24.50;;;16.10;;
11829;SDS011;5972;42.134;24.718;2024-02-26T02:42:41;21.83;;;15.73;;
11829;SDS011;5972;42.134;24.718;2024-02-26T02:45:09;19.95;;;15.90;;
11829;SDS011;5972;42.134;24.718;2024-02-26T02:47:36;24.52;;;15.82;;
11829;SDS011;5972;42.134;24.718;2024-02-26T02:50:04;19.02;;;15.85;;
11829;SDS011;5972;42.134;24.718;2024-02-26T02:52:31;17.52;;;15.68;;
11829;SDS011;5972;42.134;24.718;2024-02-26T02:55:00;25.55;;;16.98;;
11829;SDS011;5972;42.134;24.718;2024-02-26T02:57:27;20.17;;;16.15;;
11829;SDS011;5972;42.134;24.718;2024-02-26T02:59:56;24.77;;;16.13;;
11829;SDS011;5972;42.134;24.718;2024-02-26T03:02:23;23.60;;;17.17;;
11829;SDS011;5972;42.134;24.718;2024-02-26T03:04:50;22.45;;;16.63;;
11829;SDS011;5972;42.134;24.718;2024-02-26T03:07:17;23.42;;;18.08;;
11829;SDS011;5972;42.134;24.718;2024-02-26T03:09:44;20.98;;;16.70;;
11829;SDS011;5972;42.134;24.718;2024-02-26T03:12:12;22.35;;;16.60;;
11829;SDS011;5972;42.134;24.718;2024-02-26T03:14:39;24.48;;;16.65;;
11829;SDS011;5972;42.134;24.718;2024-02-26T03:17:06;22.30;;;16.73;;
11829;SDS011;5972;42.134;24.718;2024-02-26T03:19:33;22.52;;;17.05;;
11829;SDS011;5972;42.134;24.718;2024-02-26T03:22:00;24.50;;;16.55;;
11829;SDS011;5972;42.134;24.718;2024-02-26T03:24:27;30.33;;;19.25;;
11829;SDS011;5972;42.134;24.718;2024-02-26T03:26:54;23.88;;;18.33;;
11829;SDS011;5972;42.134;24.718;2024-02-26T03:29:22;22.08;;;18.05;;
11829;SDS011;5972;42.134;24.718;2024-02-26T03:31:49;22.88;;;18.27;;
11829;SDS011;5972;42.134;24.718;2024-02-26T03:34:16;23.58;;;18.25;;
11829;SDS011;5972;42.134;24.718;2024-02-26T03:36:45;38.90;;;31.73;;
11829;SDS011;5972;42.134;24.718;2024-02-26T03:39:12;31.60;;;23.92;;
11829;SDS011;5972;42.134;24.718;2024-02-26T03:41:38;27.83;;;19.65;;
11829;SDS011;5972;42.134;24.718;2024-02-26T03:44:05;25.27;;;19.17;;
11829;SDS011;5972;42.134;24.718;2024-02-26T03:46:34;25.85;;;19.17;;
11829;SDS011;5972;42.134;24.718;2024-02-26T03:49:01;23.75;;;18.95;;
11829;SDS011;5972;42.134;24.718;2024-02-26T03:51:31;27.10;;;18.48;;
11829;SDS011;5972;42.134;24.718;2024-02-26T03:53:58;24.65;;;19.20;;
11829;SDS011;5972;42.134;24.718;2024-02-26T03:56:25;26.17;;;19.15;;
11829;SDS011;5972;42.134;24.718;2024-02-26T03:58:52;29.23;;;20.13;;
11829;SDS011;5972;42.134;24.718;2024-02-26T04:01:19;27.25;;;20.27;;
11829;SDS011;5972;42.134;24.718;2024-02-26T04:03:48;29.20;;;19.90;;
11829;SDS011;5972;42.134;24.718;2024-02-26T04:06:15;28.77;;;19.23;;
11829;SDS011;5972;42.134;24.718;2024-02-26T04:08:43;25.42;;;19.17;;
11829;SDS011;5972;42.134;24.718;2024-02-26T04:11:10;29.50;;;19.08;;
11829;SDS011;5972;42.134;24.718;2024-02-26T04:13:37;28.80;;;21.30;;
11829;SDS011;5972;42.134;24.718;2024-02-26T04:16:04;33.85;;;19.60;;
11829;SDS011;5972;42.134;24.718;2024-02-26T04:18:32;34.63;;;20.90;;
11829;SDS011;5972;42.134;24.718;2024-02-26T04:21:00;28.23;;;21.13;;
11829;SDS011;5972;42.134;24.718;2024-02-26T04:23:27;31.98;;;23.48;;
11829;SDS011;5972;42.134;24.718;2024-02-26T04:25:54;29.10;;;22.10;;
11829;SDS011;5972;42.134;24.718;2024-02-26T04:28:21;34.78;;;23.48;;
11829;SDS011;5972;42.134;24.718;2024-02-26T04:30:50;34.10;;;22.90;;
11829;SDS011;5972;42.134;24.718;2024-02-26T04:33:17;34.25;;;23.60;;
11829;SDS011;5972;42.134;24.718;2024-02-26T04:35:44;32.90;;;23.10;;
11829;SDS011;5972;42.134;24.718;2024-02-26T04:38:12;31.90;;;24.83;;
11829;SDS011;5972;42.134;24.718;2024-02-26T04:40:39;31.65;;;24.65;;
11829;SDS011;5972;42.134;24.718;2024-02-26T04:43:06;33.50;;;23.33;;
11829;SDS011;5972;42.134;24.718;2024-02-26T04:45:33;32.00;;;24.08;;
11829;SDS011;5972;42.134;24.718;2024-02-26T04:48:00;29.67;;;22.45;;
11829;SDS011;5972;42.134;24.718;2024-02-26T04:50:27;31.40;;;22.05;;
11829;SDS011;5972;42.134;24.718;2024-02-26T04:52:56;30.25;;;18.98;;
11829;SDS011;5972;42.134;24.718;2024-02-26T04:55:24;30.30;;;20.05;;
11829;SDS011;5972;42.134;24.718;2024-02-26T04:57:51;24.08;;;18.75;;
11829;SDS011;5972;42.134;24.718;2024-02-26T05:00:18;26.92;;;18.67;;
11829;SDS011;5972;42.134;24.718;2024-02-26T05:02:48;27.38;;;17.67;;
11829;SDS011;5972;42.134;24.718;2024-02-26T05:05:15;30.23;;;19.77;;
11829;SDS011;5972;42.134;24.718;2024-02-26T05:07:43;27.08;;;19.20;;
11829;SDS011;5972;42.134;24.718;2024-02-26T05:10:10;35.22;;;21.10;;
11829;SDS011;5972;42.134;24.718;2024-02-26T05:12:38;30.45;;;22.40;;
11829;SDS011;5972;42.134;24.718;2024-02-26T05:15:08;26.45;;;21.67;;
11829;SDS011;5972;42.134;24.718;2024-02-26T05:17:43;28.00;;;20.98;;
11829;SDS011;5972;42.134;24.718;2024-02-26T05:20:10;28.08;;;21.38;;
11829;SDS011;5972;42.134;24.718;2024-02-26T05:22:37;32.05;;;22.58;;
11829;SDS011;5972;42.134;24.718;2024-02-26T05:25:06;33.55;;;22.40;;
11829;SDS011;5972;42.134;24.718;2024-02-26T05:27:33;29.17;;;22.77;;
11829;SDS011;5972;42.134;24.718;2024-02-26T05:30:01;31.73;;;22.40;;
11829;SDS011;5972;42.134;24.718;2024-02-26T05:32:29;31.20;;;22.55;;
11829;SDS011;5972;42.134;24.718;2024-02-26T05:34:56;35.80;;;23.27;;
11829;SDS011;5972;42.134;24.718;2024-02-26T05:37:22;32.53;;;21.42;;
11829;SDS011;5972;42.134;24.718;2024-02-26T05:39:49;35.20;;;22.33;;
11829;SDS011;5972;42.134;24.718;2024-02-26T05:42:17;27.35;;;22.05;;
11829;SDS011;5972;42.134;24.718;2024-02-26T05:44:44;30.55;;;21.75;;
11829;SDS011;5972;42.134;24.718;2024-02-26T05:47:12;32.33;;;22.17;;
11829;SDS011;5972;42.134;24.718;2024-02-26T05:49:39;37.33;;;22.08;;
11829;SDS011;5972;42.134;24.718;2024-02-26T05:52:06;31.08;;;22.38;;
11829;SDS011;5972;42.134;24.718;2024-02-26T05:54:33;34.00;;;21.95;;
11829;SDS011;5972;42.134;24.718;2024-02-26T05:57:00;39.65;;;23.90;;
11829;SDS011;5972;42.134;24.718;2024-02-26T05:59:27;34.03;;;23.02;;
11829;SDS011;5972;42.134;24.718;2024-02-26T06:01:54;30.83;;;20.55;;
11829;SDS011;5972;42.134;24.718;2024-02-26T06:04:23;30.35;;;20.88;;
11829;SDS011;5972;42.134;24.718;2024-02-26T06:06:51;29.55;;;17.05;;
11829;SDS011;5972;42.134;24.718;2024-02-26T06:09:18;34.20;;;22.50;;
11829;SDS011;5972;42.134;24.718;2024-02-26T06:11:45;34.40;;;21.73;;
11829;SDS011;5972;42.134;24.718;2024-02-26T06:14:12;36.97;;;21.55;;
11829;SDS011;5972;42.134;24.718;2024-02-26T06:16:43;30.52;;;20.20;;
11829;SDS011;5972;42.134;24.718;2024-02-26T06:19:10;25.85;;;19.05;;
11829;SDS011;5972;42.134;24.718;2024-02-26T06:21:39;25.30;;;17.45;;
11829;SDS011;5972;42.134;24.718;2024-02-26T06:24:06;29.90;;;18.08;;
11829;SDS011;5972;42.134;24.718;2024-02-26T06:26:33;24.27;;;15.43;;
11829;SDS011;5972;42.134;24.718;2024-02-26T06:29:00;26.40;;;16.85;;
11829;SDS011;5972;42.134;24.718;2024-02-26T06:31:26;24.98;;;17.40;;
11829;SDS011;5972;42.134;24.718;2024-02-26T06:33:54;34.00;;;17.45;;
11829;SDS011;5972;42.134;24.718;2024-02-26T06:36:21;37.47;;;18.55;;
11829;SDS011;5972;42.134;24.718;2024-02-26T06:38:50;31.45;;;18.70;;
11829;SDS011;5972;42.134;24.718;2024-02-26T06:41:19;28.63;;;16.35;;
11829;SDS011;5972;42.134;24.718;2024-02-26T06:43:46;29.50;;;17.50;;
11829;SDS011;5972;42.134;24.718;2024-02-26T06:46:13;38.95;;;16.80;;
11829;SDS011;5972;42.134;24.718;2024-02-26T06:48:40;24.70;;;16.80;;
11829;SDS011;5972;42.134;24.718;2024-02-26T06:51:07;25.35;;;15.57;;
11829;SDS011;5972;42.134;24.718;2024-02-26T06:53:37;26.10;;;15.13;;
11829;SDS011;5972;42.134;24.718;2024-02-26T06:56:05;32.20;;;17.70;;
11829;SDS011;5972;42.134;24.718;2024-02-26T06:58:32;38.53;;;15.85;;
11829;SDS011;5972;42.134;24.718;2024-02-26T07:00:59;33.03;;;16.52;;
11829;SDS011;5972;42.134;24.718;2024-02-26T07:03:26;24.10;;;13.90;;
11829;SDS011;5972;42.134;24.718;2024-02-26T07:05:56;22.13;;;14.13;;
11829;SDS011;5972;42.134;24.718;2024-02-26T07:08:23;23.85;;;13.82;;
11829;SDS011;5972;42.134;24.718;2024-02-26T07:10:50;19.85;;;14.18;;
11829;SDS011;5972;42.134;24.718;2024-02-26T07:13:18;21.27;;;14.65;;
11829;SDS011;5972;42.134;24.718;2024-02-26T07:15:46;27.13;;;15.32;;
11829;SDS011;5972;42.134;24.718;2024-02-26T07:18:13;29.63;;;15.75;;
11829;SDS011;5972;42.134;24.718;2024-02-26T07:20:40;33.63;;;14.43;;
11829;SDS011;5972;42.134;24.718;2024-02-26T07:23:09;31.00;;;15.43;;
11829;SDS011;5972;42.134;24.718;2024-02-26T07:25:36;29.50;;;15.65;;
11829;SDS011;5972;42.134;24.718;2024-02-26T07:28:03;22.67;;;14.90;;
11829;SDS011;5972;42.134;24.718;2024-02-26T07:30:32;31.15;;;14.75;;
11829;SDS011;5972;42.134;24.718;2024-02-26T07:32:59;25.52;;;14.48;;
11829;SDS011;5972;42.134;24.718;2024-02-26T07:35:26;39.97;;;16.58;;
11829;SDS011;5972;42.134;24.718;2024-02-26T07:37:53;29.92;;;20.23;;
11829;SDS011;5972;42.134;24.718;2024-02-26T07:40:23;30.38;;;18.58;;
11829;SDS011;5972;42.134;24.718;2024-02-26T07:42:50;34.83;;;19.75;;
11829;SDS011;5972;42.134;24.718;2024-02-26T07:45:17;29.48;;;20.02;;
11829;SDS011;5972;42.134;24.718;2024-02-26T07:47:47;39.90;;;22.02;;
11829;SDS011;5972;42.134;24.718;2024-02-26T07:50:14;38.63;;;21.27;;
11829;SDS011;5972;42.134;24.718;2024-02-26T07:52:41;36.60;;;20.48;;
11829;SDS011;5972;42.134;24.718;2024-02-26T07:55:09;32.83;;;20.42;;
11829;SDS011;5972;42.134;24.718;2024-02-26T07:57:40;31.75;;;20.10;;
11829;SDS011;5972;42.134;24.718;2024-02-26T08:00:09;38.88;;;20.42;;
11829;SDS011;5972;42.134;24.718;2024-02-26T08:02:41;24.63;;;18.10;;
11829;SDS011;5972;42.134;24.718;2024-02-26T08:05:10;29.75;;;18.27;;
11829;SDS011;5972;42.134;24.718;2024-02-26T08:07:37;24.52;;;16.55;;
11829;SDS011;5972;42.134;24.718;2024-02-26T08:10:05;23.63;;;15.27;;
11829;SDS011;5972;42.134;24.718;2024-02-26T08:12:32;23.73;;;15.55;;
11829;SDS011;5972;42.134;24.718;2024-02-26T08:14:59;19.63;;;15.88;;
11829;SDS011;5972;42.134;24.718;2024-02-26T08:17:26;26.48;;;15.95;;
11829;SDS011;5972;42.134;24.718;2024-02-26T08:19:53;23.02;;;15.27;;
11829;SDS011;5972;42.134;24.718;2024-02-26T08:22:22;20.52;;;15.73;;
11829;SDS011;5972;42.134;24.718;2024-02-26T08:24:50;22.67;;;16.10;;
11829;SDS011;5972;42.134;24.718;2024-02-26T08:27:17;26.50;;;16.20;;
11829;SDS011;5972;42.134;24.718;2024-02-26T08:29:46;22.55;;;15.77;;
11829;SDS011;5972;42.134;24.718;2024-02-26T08:32:13;25.05;;;16.80;;
11829;SDS011;5972;42.134;24.718;2024-02-26T08:34:42;27.50;;;17.55;;
11829;SDS011;5972;42.134;24.718;2024-02-26T08:37:09;22.92;;;17.45;;
11829;SDS011;5972;42.134;24.718;2024-02-26T08:39:37;24.20;;;16.98;;
11829;SDS011;5972;42.134;24.718;2024-02-26T08:42:04;27.27;;;17.25;;
11829;SDS011;5972;42.134;24.718;2024-02-26T08:44:32;33.40;;;18.05;;
11829;SDS011;5972;42.134;24.718;2024-02-26T08:46:59;29.98;;;17.98;;
11829;SDS011;5972;42.134;24.718;2024-02-26T08:49:26;38.53;;;19.13;;
11829;SDS011;5972;42.134;24.718;2024-02-26T08:51:53;28.65;;;17.65;;
11829;SDS011;5972;42.134;24.718;2024-02-26T08:54:20;29.95;;;17.98;;
11829;SDS011;5972;42.134;24.718;2024-02-26T09:00:03;24.77;;;17.45;;
11829;SDS011;5972;42.134;24.718;2024-02-26T09:02:31;28.17;;;17.20;;
11829;SDS011;5972;42.134;24.718;2024-02-26T09:04:59;25.70;;;17.15;;
11829;SDS011;5972;42.134;24.718;2024-02-26T09:07:26;25.02;;;18.50;;
11829;SDS011;5972;42.134;24.718;2024-02-26T09:09:53;30.67;;;19.65;;
11829;SDS011;5972;42.134;24.718;2024-02-26T09:12:21;36.25;;;19.70;;
11829;SDS011;5972;42.134;24.718;2024-02-26T09:14:50;33.03;;;20.35;;
11829;SDS011;5972;42.134;24.718;2024-02-26T09:17:19;35.17;;;19.35;;
11829;SDS011;5972;42.134;24.718;2024-02-26T09:19:46;28.65;;;18.17;;
11829;SDS011;5972;42.134;24.718;2024-02-26T09:22:13;26.70;;;16.75;;
11829;SDS011;5972;42.134;24.718;2024-02-26T09:24:41;31.85;;;18.48;;
11829;SDS011;5972;42.134;24.718;2024-02-26T09:27:08;27.25;;;17.88;;
11829;SDS011;5972;42.134;24.718;2024-02-26T09:29:43;24.85;;;16.88;;
11829;SDS011;5972;42.134;24.718;2024-02-26T09:32:10;26.67;;;16.48;;
11829;SDS011;5972;42.134;24.718;2024-02-26T09:34:41;23.77;;;16.27;;
11829;SDS011;5972;42.134;24.718;2024-02-26T09:37:10;26.77;;;15.88;;
11829;SDS011;5972;42.134;24.718;2024-02-26T09:39:38;24.73;;;15.05;;
11829;SDS011;5972;42.134;24.718;2024-02-26T09:42:11;20.60;;;15.70;;
11829;SDS011;5972;42.134;24.718;2024-02-26T09:44:41;24.45;;;15.25;;
11829;SDS011;5972;42.134;24.718;2024-02-26T09:47:11;24.25;;;14.63;;
11829;SDS011;5972;42.134;24.718;2024-02-26T09:49:44;22.38;;;15.00;;
11829;SDS011;5972;42.134;24.718;2024-02-26T09:52:14;23.02;;;15.88;;
11829;SDS011;5972;42.134;24.718;2024-02-26T09:54:42;18.40;;;14.90;;
11829;SDS011;5972;42.134;24.718;2024-02-26T09:57:13;21.35;;;14.45;;
11829;SDS011;5972;42.134;24.718;2024-02-26T09:59:42;20.63;;;14.75;;
11829;SDS011;5972;42.134;24.718;2024-02-26T10:02:11;18.08;;;13.30;;
11829;SDS011;5972;42.134;24.718;2024-02-26T10:04:39;17.85;;;13.52;;
11829;SDS011;5972;42.134;24.718;2024-02-26T10:07:09;18.42;;;14.15;;
11829;SDS011;5972;42.134;24.718;2024-02-26T10:09:38;20.35;;;14.07;;
11829;SDS011;5972;42.134;24.718;2024-02-26T10:12:07;19.05;;;13.75;;
11829;SDS011;5972;42.134;24.718;2024-02-26T10:14:37;22.15;;;13.80;;
11829;SDS011;5972;42.134;24.718;2024-02-26T10:17:05;16.65;;;12.93;;
11829;SDS011;5972;42.134;24.718;2024-02-26T10:19:34;26.20;;;13.93;;
11829;SDS011;5972;42.134;24.718;2024-02-26T10:22:03;20.63;;;13.90;;
11829;SDS011;5972;42.134;24.718;2024-02-26T10:24:30;17.95;;;14.43;;
11829;SDS011;5972;42.134;24.718;2024-02-26T10:26:57;19.13;;;13.43;;
11829;SDS011;5972;42.134;24.718;2024-02-26T10:29:24;20.67;;;13.68;;
11829;SDS011;5972;42.134;24.718;2024-02-26T10:31:52;23.90;;;13.30;;
11829;SDS011;5972;42.134;24.718;2024-02-26T10:34:20;20.85;;;14.98;;
11829;SDS011;5972;42.134;24.718;2024-02-26T10:36:47;19.25;;;15.15;;
11829;SDS011;5972;42.134;24.718;2024-02-26T10:39:17;23.98;;;14.98;;
11829;SDS011;5972;42.134;24.718;2024-02-26T10:41:44;19.08;;;14.18;;
11829;SDS011;5972;42.134;24.718;2024-02-26T10:44:12;16.30;;;14.32;;
11829;SDS011;5972;42.134;24.718;2024-02-26T10:46:50;23.17;;;13.75;;
11829;SDS011;5972;42.134;24.718;2024-02-26T10:49:19;23.35;;;14.80;;
11829;SDS011;5972;42.134;24.718;2024-02-26T10:51:50;23.08;;;15.35;;
11829;SDS011;5972;42.134;24.718;2024-02-26T10:54:29;28.10;;;15.88;;
11829;SDS011;5972;42.134;24.718;2024-02-26T10:57:11;20.92;;;14.38;;
11829;SDS011;5972;42.134;24.718;2024-02-26T10:59:39;22.90;;;14.20;;
11829;SDS011;5972;42.134;24.718;2024-02-26T11:02:12;24.38;;;13.63;;
11829;SDS011;5972;42.134;24.718;2024-02-26T11:04:41;20.52;;;13.35;;
11829;SDS011;5972;42.134;24.718;2024-02-26T11:07:09;21.85;;;13.88;;
11829;SDS011;5972;42.134;24.718;2024-02-26T11:09:38;24.15;;;14.95;;
11829;SDS011;5972;42.134;24.718;2024-02-26T11:12:08;17.58;;;14.10;;
11829;SDS011;5972;42.134;24.718;2024-02-26T11:14:38;19.02;;;13.25;;
11829;SDS011;5972;42.134;24.718;2024-02-26T11:17:07;20.77;;;14.20;;
11829;SDS011;5972;42.134;24.718;2024-02-26T11:19:36;21.27;;;14.57;;
11829;SDS011;5972;42.134;24.718;2024-02-26T11:22:04;17.83;;;13.45;;
11829;SDS011;5972;42.134;24.718;2024-02-26T11:24:31;19.30;;;13.77;;
11829;SDS011;5972;42.134;24.718;2024-02-26T11:27:01;22.88;;;14.10;;
11829;SDS011;5972;42.134;24.718;2024-02-26T11:29:34;22.98;;;13.93;;
11829;SDS011;5972;42.134;24.718;2024-02-26T11:32:05;16.25;;;11.90;;
11829;SDS011;5972;42.134;24.718;2024-02-26T11:34:35;17.42;;;11.93;;
11829;SDS011;5972;42.134;24.718;2024-02-26T11:37:09;21.52;;;11.95;;
11829;SDS011;5972;42.134;24.718;2024-02-26T11:39:37;20.70;;;12.63;;
11829;SDS011;5972;42.134;24.718;2024-02-26T11:42:07;20.75;;;11.90;;
11829;SDS011;5972;42.134;24.718;2024-02-26T11:44:36;15.45;;;9.85;;
11829;SDS011;5972;42.134;24.718;2024-02-26T11:47:09;18.45;;;10.02;;
11829;SDS011;5972;42.134;24.718;2024-02-26T11:49:37;17.58;;;10.02;;
11829;SDS011;5972;42.134;24.718;2024-02-26T11:52:04;14.60;;;10.13;;
11829;SDS011;5972;42.134;24.718;2024-02-26T11:54:46;18.05;;;10.93;;
11829;SDS011;5972;42.134;24.718;2024-02-26T11:57:24;15.93;;;10.88;;
11829;SDS011;5972;42.134;24.718;2024-02-26T11:59:53;19.20;;;10.73;;
11829;SDS011;5972;42.134;24.718;2024-02-26T12:05:26;18.70;;;10.95;;
11829;SDS011;5972;42.134;24.718;2024-02-26T12:07:59;15.82;;;11.05;;
11829;SDS011;5972;42.134;24.718;2024-02-26T12:10:30;17.30;;;11.40;;
11829;SDS011;5972;42.134;24.718;2024-02-26T12:13:05;15.00;;;10.88;;
11829;SDS011;5972;42.134;24.718;2024-02-26T12:15:35;15.32;;;12.05;;
11829;SDS011;5972;42.134;24.718;2024-02-26T12:18:04;17.85;;;11.52;;
11829;SDS011;5972;42.134;24.718;2024-02-26T12:20:33;16.50;;;11.27;;
11829;SDS011;5972;42.134;24.718;2024-02-26T12:23:01;19.33;;;12.80;;
11829;SDS011;5972;42.134;24.718;2024-02-26T12:25:30;24.13;;;12.85;;
11829;SDS011;5972;42.134;24.718;2024-02-26T12:27:59;17.65;;;12.02;;
11829;SDS011;5972;42.134;24.718;2024-02-26T12:30:28;12.90;;;11.02;;
11829;SDS011;5972;42.134;24.718;2024-02-26T12:32:57;14.88;;;12.00;;
11829;SDS011;5972;42.134;24.718;2024-02-26T12:35:25;15.70;;;11.65;;
11829;SDS011;5972;42.134;24.718;2024-02-26T12:37:53;24.27;;;11.57;;
11829;SDS011;5972;42.134;24.718;2024-02-26T12:40:20;14.13;;;11.40;;
11829;SDS011;5972;42.134;24.718;2024-02-26T12:42:48;20.38;;;11.98;;
11829;SDS011;5972;42.134;24.718;2024-02-26T12:45:15;16.58;;;12.32;;
11829;SDS011;5972;42.134;24.718;2024-02-26T12:47:49;24.40;;;12.75;;
11829;SDS011;5972;42.134;24.718;2024-02-26T12:50:21;16.50;;;12.32;;
11829;SDS011;5972;42.134;24.718;2024-02-26T12:52:49;16.75;;;12.32;;
11829;SDS011;5972;42.134;24.718;2024-02-26T12:55:19;22.65;;;12.27;;
11829;SDS011;5972;42.134;24.718;2024-02-26T12:57:48;19.35;;;12.50;;
11829;SDS011;5972;42.134;24.718;2024-02-26T13:00:21;21.08;;;12.25;;
11829;SDS011;5972;42.134;24.718;2024-02-26T13:02:53;15.68;;;12.05;;
11829;SDS011;5972;42.134;24.718;2024-02-26T13:05:25;18.65;;;11.85;;
11829;SDS011;5972;42.134;24.718;2024-02-26T13:07:53;20.23;;;11.95;;
11829;SDS011;5972;42.134;24.718;2024-02-26T13:10:20;18.38;;;11.48;;
11829;SDS011;5972;42.134;24.718;2024-02-26T13:12:47;21.58;;;11.70;;
11829;SDS011;5972;42.134;24.718;2024-02-26T13:15:19;14.75;;;12.00;;
11829;SDS011;5972;42.134;24.718;2024-02-26T13:17:48;18.48;;;12.32;;
11829;SDS011;5972;42.134;24.718;2024-02-26T13:20:26;20.60;;;12.25;;
11829;SDS011;5972;42.134;24.718;2024-02-26T13:22:59;20.33;;;12.00;;
11829;SDS011;5972;42.134;24.718;2024-02-26T13:25:27;18.90;;;11.48;;
11829;SDS011;5972;42.134;24.718;2024-02-26T13:28:05;22.60;;;11.52;;
11829;SDS011;5972;42.134;24.718;2024-02-26T13:30:33;23.48;;;11.65;;
11829;SDS011;5972;42.134;24.718;2024-02-26T13:33:06;21.80;;;11.48;;
11829;SDS011;5972;42.134;24.718;2024-02-26T13:35:36;18.50;;;11.25;;
11829;SDS011;5972;42.134;24.718;2024-02-26T13:38:04;18.83;;;11.43;;
11829;SDS011;5972;42.134;24.718;2024-02-26T13:40:31;19.90;;;11.07;;
11829;SDS011;5972;42.134;24.718;2024-02-26T13:42:59;18.45;;;10.63;;
11829;SDS011;5972;42.134;24.718;2024-02-26T13:45:25;17.80;;;10.65;;
11829;SDS011;5972;42.134;24.718;2024-02-26T13:47:52;18.75;;;10.95;;
11829;SDS011;5972;42.134;24.718;2024-02-26T13:50:19;20.73;;;10.18;;
11829;SDS011;5972;42.134;24.718;2024-02-26T13:52:49;19.35;;;11.13;;
11829;SDS011;5972;42.134;24.718;2024-02-26T13:55:19;17.13;;;10.13;;
11829;SDS011;5972;42.134;24.718;2024-02-26T13:57:47;17.50;;;10.70;;
11829;SDS011;5972;42.134;24.718;2024-02-26T14:00:17;20.05;;;10.85;;
11829;SDS011;5972;42.134;24.718;2024-02-26T14:02:44;23.50;;;11.30;;
11829;SDS011;5972;42.134;24.718;2024-02-26T14:05:11;17.42;;;9.68;;
11829;SDS011;5972;42.134;24.718;2024-02-26T14:07:39;15.32;;;10.30;;
11829;SDS011;5972;42.134;24.718;2024-02-26T14:10:08;17.17;;;10.18;;
11829;SDS011;5972;42.134;24.718;2024-02-26T14:12:38;18.13;;;9.50;;
11829;SDS011;5972;42.134;24.718;2024-02-26T14:15:06;17.35;;;10.13;;
11829;SDS011;5972;42.134;24.718;2024-02-26T14:17:34;19.23;;;10.02;;
11829;SDS011;5972;42.134;24.718;2024-02-26T14:20:01;15.38;;;9.02;;
11829;SDS011;5972;42.134;24.718;2024-02-26T14:22:28;14.85;;;9.23;;
11829;SDS011;5972;42.134;24.718;2024-02-26T14:24:56;15.35;;;8.93;;
11829;SDS011;5972;42.134;24.718;2024-02-26T14:27:25;14.55;;;9.27;;
11829;SDS011;5972;42.134;24.718;2024-02-26T14:29:52;18.33;;;9.48;;
11829;SDS011;5972;42.134;24.718;2024-02-26T14:32:20;15.80;;;9.48;;